Joppatowne, Maryland
Current Conditions -  °F | °C
As of 4:54 AM on Friday 28 Nov 2014 (Local Time) from KMTN Reporting Station
Clear Clear  
Wind Chill: 28°   Ceiling: Unl
Heat Index: 34°   Visibility: 10mi
Dew Point: 27°   Wind: 7mph
Humidity: 75%   Direction: 250°WSW
Pressure: 30.21"   Gusts: NA
Location:  39.46°N, 76.36°W
Report Text: KMTN 280954Z AUTO 25006KT 10SM CLR 01/M03 A3021 RMK AO2
Loading
Personal Weather Stations






























Interactive Weather Map New forecast layout! Learn more

10-Day Weather Forecast

Advertisements
Track Severe Weather on mobile